Terminal Aerodrome Forecast
Issued by NWS Pueblo, CO

Home | Current Version | Previous Version | Text Only | Print | Product List | Glossary On
Versions: 1 2 3 4 5 6 7 8 9 10 11 12 13 14 15 16 17 18 19
000
FTUS45 KPUB 041720
TAFCOS
TAF
KCOS 041720Z 0418/0518 17007KT P6SM FEW200
     FM042000 18010KT P6SM FEW110 SCT200
     FM050100 15006KT P6SM FEW110 SCT200
     FM050400 04007KT P6SM SCT200
     FM050900 33009KT P6SM SCT200=

USA.gov is the U.S. government's official web portal to all federal, state and local government web resources and services.